sensor_id;sensor_type;location;lat;lon;timestamp;pressure;altitude;pressure_sealevel;temperature;humidity
16331;BME280;8275;48.206;16.340;2023-07-31T00:01:33;99093.41;;;24.07;45.42
16331;BME280;8275;48.206;16.340;2023-07-31T00:04:02;99087.31;;;24.05;45.61
16331;BME280;8275;48.206;16.340;2023-07-31T00:06:31;99084.03;;;24.03;45.56
16331;BME280;8275;48.206;16.340;2023-07-31T00:09:00;99088.81;;;24.02;45.66
16331;BME280;8275;48.206;16.340;2023-07-31T00:11:29;99091.63;;;24.02;45.48
16331;BME280;8275;48.206;16.340;2023-07-31T00:13:58;99099.09;;;23.98;45.83
16331;BME280;8275;48.206;16.340;2023-07-31T00:16:27;99095.81;;;23.96;45.87
16331;BME280;8275;48.206;16.340;2023-07-31T00:18:55;99086.97;;;23.94;45.74
16331;BME280;8275;48.206;16.340;2023-07-31T00:21:24;99086.84;;;23.91;45.52
16331;BME280;8275;48.206;16.340;2023-07-31T00:23:54;99088.00;;;23.90;45.54
16331;BME280;8275;48.206;16.340;2023-07-31T00:26:22;99098.72;;;23.88;45.74
16331;BME280;8275;48.206;16.340;2023-07-31T00:28:51;99102.56;;;23.83;45.78
16331;BME280;8275;48.206;16.340;2023-07-31T00:31:19;99107.69;;;23.81;45.69
16331;BME280;8275;48.206;16.340;2023-07-31T00:33:48;99100.78;;;23.79;45.85
16331;BME280;8275;48.206;16.340;2023-07-31T00:36:16;99095.91;;;23.76;45.86
16331;BME280;8275;48.206;16.340;2023-07-31T00:38:46;99105.81;;;23.73;45.65
16331;BME280;8275;48.206;16.340;2023-07-31T00:41:15;99098.94;;;23.70;45.86
16331;BME280;8275;48.206;16.340;2023-07-31T00:43:44;99096.50;;;23.69;45.74
16331;BME280;8275;48.206;16.340;2023-07-31T00:46:13;99097.66;;;23.68;45.93
16331;BME280;8275;48.206;16.340;2023-07-31T00:48:41;99098.78;;;23.67;45.93
16331;BME280;8275;48.206;16.340;2023-07-31T00:51:11;99106.38;;;23.66;45.78
16331;BME280;8275;48.206;16.340;2023-07-31T00:53:40;99113.13;;;23.65;46.06
16331;BME280;8275;48.206;16.340;2023-07-31T00:56:11;99107.06;;;23.63;46.07
16331;BME280;8275;48.206;16.340;2023-07-31T00:58:41;99108.69;;;23.64;46.08
16331;BME280;8275;48.206;16.340;2023-07-31T01:01:10;99104.75;;;23.65;45.99
16331;BME280;8275;48.206;16.340;2023-07-31T01:03:39;99103.91;;;23.65;45.86
16331;BME280;8275;48.206;16.340;2023-07-31T01:06:15;99104.28;;;23.63;45.79
16331;BME280;8275;48.206;16.340;2023-07-31T01:08:54;99108.69;;;23.64;46.00
16331;BME280;8275;48.206;16.340;2023-07-31T01:11:31;99108.38;;;23.66;46.08
16331;BME280;8275;48.206;16.340;2023-07-31T01:14:03;99102.78;;;23.66;46.18
16331;BME280;8275;48.206;16.340;2023-07-31T01:16:31;99100.09;;;23.69;46.33
16331;BME280;8275;48.206;16.340;2023-07-31T01:19:00;99097.28;;;23.69;46.57
16331;BME280;8275;48.206;16.340;2023-07-31T01:21:50;99098.78;;;23.67;46.39
16331;BME280;8275;48.206;16.340;2023-07-31T01:24:23;99102.88;;;23.69;46.27
16331;BME280;8275;48.206;16.340;2023-07-31T01:27:04;99098.47;;;23.68;46.43
16331;BME280;8275;48.206;16.340;2023-07-31T01:29:43;99089.59;;;23.66;46.56
16331;BME280;8275;48.206;16.340;2023-07-31T01:32:14;99089.25;;;23.68;46.65
16331;BME280;8275;48.206;16.340;2023-07-31T01:34:43;99092.88;;;23.68;46.24
16331;BME280;8275;48.206;16.340;2023-07-31T01:37:12;99095.66;;;23.68;46.23
16331;BME280;8275;48.206;16.340;2023-07-31T01:39:41;99091.69;;;23.69;46.46
16331;BME280;8275;48.206;16.340;2023-07-31T01:42:11;99098.47;;;23.68;46.20
16331;BME280;8275;48.206;16.340;2023-07-31T01:44:39;99091.69;;;23.69;46.42
16331;BME280;8275;48.206;16.340;2023-07-31T01:47:08;99094.16;;;23.71;46.58
16331;BME280;8275;48.206;16.340;2023-07-31T01:49:36;99093.34;;;23.70;46.65
16331;BME280;8275;48.206;16.340;2023-07-31T01:52:06;99092.16;;;23.71;46.67
16331;BME280;8275;48.206;16.340;2023-07-31T01:54:35;99097.44;;;23.73;46.79
16331;BME280;8275;48.206;16.340;2023-07-31T01:57:04;99104.16;;;23.72;46.62
16331;BME280;8275;48.206;16.340;2023-07-31T01:59:35;99105.34;;;23.71;46.62
16331;BME280;8275;48.206;16.340;2023-07-31T02:02:04;99102.56;;;23.71;46.51
16331;BME280;8275;48.206;16.340;2023-07-31T02:04:33;99110.13;;;23.70;46.74
16331;BME280;8275;48.206;16.340;2023-07-31T02:07:02;99112.91;;;23.70;46.61
16331;BME280;8275;48.206;16.340;2023-07-31T02:09:31;99113.75;;;23.71;46.90
16331;BME280;8275;48.206;16.340;2023-07-31T02:11:59;99123.28;;;23.70;46.84
16331;BME280;8275;48.206;16.340;2023-07-31T02:14:28;99121.66;;;23.69;46.73
16331;BME280;8275;48.206;16.340;2023-07-31T02:16:58;99119.19;;;23.67;46.84
16331;BME280;8275;48.206;16.340;2023-07-31T02:19:26;99123.19;;;23.66;46.75
16331;BME280;8275;48.206;16.340;2023-07-31T02:21:55;99120.69;;;23.65;46.78
16331;BME280;8275;48.206;16.340;2023-07-31T02:24:24;99129.44;;;23.63;46.63
16331;BME280;8275;48.206;16.340;2023-07-31T02:26:52;99121.75;;;23.60;46.85
16331;BME280;8275;48.206;16.340;2023-07-31T02:29:21;99123.25;;;23.58;46.71
16331;BME280;8275;48.206;16.340;2023-07-31T02:31:49;99124.44;;;23.57;46.85
16331;BME280;8275;48.206;16.340;2023-07-31T02:34:19;99123.13;;;23.54;46.85
16331;BME280;8275;48.206;16.340;2023-07-31T02:36:48;99127.78;;;23.50;46.62
16331;BME280;8275;48.206;16.340;2023-07-31T02:39:16;99126.13;;;23.49;46.73
16331;BME280;8275;48.206;16.340;2023-07-31T02:41:45;99132.09;;;23.48;47.00
16331;BME280;8275;48.206;16.340;2023-07-31T02:44:13;99123.56;;;23.44;46.91
16331;BME280;8275;48.206;16.340;2023-07-31T02:46:42;99125.06;;;23.42;47.06
16331;BME280;8275;48.206;16.340;2023-07-31T02:49:10;99124.59;;;23.40;47.23
16331;BME280;8275;48.206;16.340;2023-07-31T02:51:40;99130.06;;;23.36;46.84
16331;BME280;8275;48.206;16.340;2023-07-31T02:54:09;99127.91;;;23.33;47.03
16331;BME280;8275;48.206;16.340;2023-07-31T02:56:37;99133.03;;;23.31;46.89
16331;BME280;8275;48.206;16.340;2023-07-31T02:59:06;99133.72;;;23.28;46.84
16331;BME280;8275;48.206;16.340;2023-07-31T03:01:35;99131.28;;;23.27;47.32
16331;BME280;8275;48.206;16.340;2023-07-31T03:04:04;99131.94;;;23.24;46.91
16331;BME280;8275;48.206;16.340;2023-07-31T03:06:32;99135.09;;;23.22;47.19
16331;BME280;8275;48.206;16.340;2023-07-31T03:09:02;99144.31;;;23.23;47.51
16331;BME280;8275;48.206;16.340;2023-07-31T03:11:31;99144.97;;;23.20;47.29
16331;BME280;8275;48.206;16.340;2023-07-31T03:13:59;99144.50;;;23.18;47.32
16331;BME280;8275;48.206;16.340;2023-07-31T03:16:28;99144.03;;;23.16;47.54
16331;BME280;8275;48.206;16.340;2023-07-31T03:18:56;99150.78;;;23.15;47.61
16331;BME280;8275;48.206;16.340;2023-07-31T03:21:25;99149.16;;;23.14;47.56
16331;BME280;8275;48.206;16.340;2023-07-31T03:23:53;99151.13;;;23.13;47.41
16331;BME280;8275;48.206;16.340;2023-07-31T03:26:24;99150.78;;;23.15;47.56
16331;BME280;8275;48.206;16.340;2023-07-31T03:28:53;99153.56;;;23.15;47.76
16331;BME280;8275;48.206;16.340;2023-07-31T03:31:21;99154.75;;;23.14;47.87
16331;BME280;8275;48.206;16.340;2023-07-31T03:33:50;99157.53;;;23.14;47.83
16331;BME280;8275;48.206;16.340;2023-07-31T03:36:18;99160.34;;;23.14;47.68
16331;BME280;8275;48.206;16.340;2023-07-31T03:38:47;99153.56;;;23.15;48.05
16331;BME280;8275;48.206;16.340;2023-07-31T03:41:15;99159.16;;;23.15;48.14
16331;BME280;8275;48.206;16.340;2023-07-31T03:43:50;99164.75;;;23.15;48.18
16331;BME280;8275;48.206;16.340;2023-07-31T03:46:19;99166.03;;;23.17;48.16
16331;BME280;8275;48.206;16.340;2023-07-31T03:48:48;99155.34;;;23.19;48.53
16331;BME280;8275;48.206;16.340;2023-07-31T03:51:16;99160.25;;;23.22;48.47
16331;BME280;8275;48.206;16.340;2023-07-31T03:53:45;99169.22;;;23.28;48.50
16331;BME280;8275;48.206;16.340;2023-07-31T03:56:13;99169.03;;;23.33;48.53
16331;BME280;8275;48.206;16.340;2023-07-31T03:58:43;99178.88;;;23.39;48.42
16331;BME280;8275;48.206;16.340;2023-07-31T04:01:12;99172.59;;;23.42;48.32
16331;BME280;8275;48.206;16.340;2023-07-31T04:03:41;99172.38;;;23.47;48.38
16331;BME280;8275;48.206;16.340;2023-07-31T04:06:09;99166.13;;;23.50;48.41
16331;BME280;8275;48.206;16.340;2023-07-31T04:08:38;99175.44;;;23.54;48.37
16331;BME280;8275;48.206;16.340;2023-07-31T04:11:06;99170.00;;;23.57;48.46
16331;BME280;8275;48.206;16.340;2023-07-31T04:13:35;99163.38;;;23.62;48.35
16331;BME280;8275;48.206;16.340;2023-07-31T04:16:05;99166.28;;;23.65;48.44
16331;BME280;8275;48.206;16.340;2023-07-31T04:18:33;99168.50;;;23.72;48.63
16331;BME280;8275;48.206;16.340;2023-07-31T04:21:02;99155.00;;;23.74;48.23
16331;BME280;8275;48.206;16.340;2023-07-31T04:23:30;99163.53;;;23.78;48.40
16331;BME280;8275;48.206;16.340;2023-07-31T04:25:59;99160.00;;;23.81;47.97
16331;BME280;8275;48.206;16.340;2023-07-31T04:28:27;99155.38;;;23.85;48.06
16331;BME280;8275;48.206;16.340;2023-07-31T04:30:59;99150.25;;;23.87;48.07
16331;BME280;8275;48.206;16.340;2023-07-31T04:33:29;99151.19;;;23.91;47.88
16331;BME280;8275;48.206;16.340;2023-07-31T04:35:58;99155.63;;;23.92;47.66
16331;BME280;8275;48.206;16.340;2023-07-31T04:38:26;99154.13;;;23.94;47.42
16331;BME280;8275;48.206;16.340;2023-07-31T04:40:55;99151.66;;;23.93;47.19
16331;BME280;8275;48.206;16.340;2023-07-31T04:43:23;99161.69;;;23.94;47.21
16331;BME280;8275;48.206;16.340;2023-07-31T04:45:52;99159.72;;;23.94;47.26
16331;BME280;8275;48.206;16.340;2023-07-31T04:48:21;99150.97;;;23.96;47.10
16331;BME280;8275;48.206;16.340;2023-07-31T04:50:51;99152.25;;;23.98;46.71
16331;BME280;8275;48.206;16.340;2023-07-31T04:53:19;99155.53;;;24.00;46.63
16331;BME280;8275;48.206;16.340;2023-07-31T04:55:48;99163.56;;;24.02;46.53
16331;BME280;8275;48.206;16.340;2023-07-31T04:58:16;99165.66;;;24.05;46.23
16331;BME280;8275;48.206;16.340;2023-07-31T05:00:45;99157.28;;;24.05;46.08
16331;BME280;8275;48.206;16.340;2023-07-31T05:03:13;99162.31;;;24.11;45.91
16331;BME280;8275;48.206;16.340;2023-07-31T05:05:42;99162.44;;;24.27;45.68
16331;BME280;8275;48.206;16.340;2023-07-31T05:08:12;99163.50;;;24.34;45.14
16331;BME280;8275;48.206;16.340;2023-07-31T05:10:40;99162.94;;;24.41;44.99
16331;BME280;8275;48.206;16.340;2023-07-31T05:13:09;99164.81;;;24.49;45.06
16331;BME280;8275;48.206;16.340;2023-07-31T05:15:37;99171.78;;;24.55;44.73
16331;BME280;8275;48.206;16.340;2023-07-31T05:18:06;99177.53;;;24.59;44.23
16331;BME280;8275;48.206;16.340;2023-07-31T05:20:35;99172.38;;;24.61;44.32
16331;BME280;8275;48.206;16.340;2023-07-31T05:23:03;99169.69;;;24.64;44.12
16331;BME280;8275;48.206;16.340;2023-07-31T05:25:33;99175.28;;;24.64;43.65
16331;BME280;8275;48.206;16.340;2023-07-31T05:28:02;99177.25;;;24.64;43.51
16331;BME280;8275;48.206;16.340;2023-07-31T05:30:31;99173.53;;;24.60;43.72
16331;BME280;8275;48.206;16.340;2023-07-31T05:32:59;99180.66;;;24.57;43.56
16331;BME280;8275;48.206;16.340;2023-07-31T05:35:28;99185.34;;;24.53;43.56
16331;BME280;8275;48.206;16.340;2023-07-31T05:37:57;99182.44;;;24.50;43.69
16331;BME280;8275;48.206;16.340;2023-07-31T05:40:25;99187.78;;;24.55;43.90
16331;BME280;8275;48.206;16.340;2023-07-31T05:42:58;99182.06;;;24.63;43.78
16331;BME280;8275;48.206;16.340;2023-07-31T05:45:26;99178.94;;;24.77;43.73
16331;BME280;8275;48.206;16.340;2023-07-31T05:47:55;99179.72;;;24.89;43.13
16331;BME280;8275;48.206;16.340;2023-07-31T05:50:23;99182.06;;;24.99;43.00
16331;BME280;8275;48.206;16.340;2023-07-31T05:52:52;99178.03;;;25.13;42.73
16331;BME280;8275;48.206;16.340;2023-07-31T05:55:21;99182.09;;;25.27;42.43
16331;BME280;8275;48.206;16.340;2023-07-31T05:57:53;99183.22;;;25.38;42.01
16331;BME280;8275;48.206;16.340;2023-07-31T06:00:23;99184.03;;;25.51;41.90
16331;BME280;8275;48.206;16.340;2023-07-31T06:02:52;99184.91;;;25.67;41.82
16331;BME280;8275;48.206;16.340;2023-07-31T06:05:20;99172.50;;;25.84;41.02
16331;BME280;8275;48.206;16.340;2023-07-31T06:07:49;99177.69;;;25.97;41.12
16331;BME280;8275;48.206;16.340;2023-07-31T06:10:18;99169.13;;;26.06;40.72
16331;BME280;8275;48.206;16.340;2023-07-31T06:12:46;99176.56;;;26.14;40.53
16331;BME280;8275;48.206;16.340;2023-07-31T06:15:15;99169.41;;;26.16;39.74
16331;BME280;8275;48.206;16.340;2023-07-31T06:17:46;99168.34;;;26.21;39.85
16331;BME280;8275;48.206;16.340;2023-07-31T06:20:15;99172.59;;;26.30;39.49
16331;BME280;8275;48.206;16.340;2023-07-31T06:22:44;99175.13;;;26.35;39.52
16331;BME280;8275;48.206;16.340;2023-07-31T06:25:12;99179.56;;;26.36;39.43
16331;BME280;8275;48.206;16.340;2023-07-31T06:27:42;99171.50;;;26.35;38.86
16331;BME280;8275;48.206;16.340;2023-07-31T06:30:11;99181.47;;;26.32;39.02
16331;BME280;8275;48.206;16.340;2023-07-31T06:32:40;99179.94;;;26.35;38.25
16331;BME280;8275;48.206;16.340;2023-07-31T06:35:10;99184.72;;;26.34;37.88
16331;BME280;8275;48.206;16.340;2023-07-31T06:37:39;99178.28;;;26.34;38.72
16331;BME280;8275;48.206;16.340;2023-07-31T06:40:11;99174.69;;;26.33;38.01
16331;BME280;8275;48.206;16.340;2023-07-31T06:42:40;99173.03;;;26.32;37.99
16331;BME280;8275;48.206;16.340;2023-07-31T06:45:09;99169.06;;;26.33;38.64
16331;BME280;8275;48.206;16.340;2023-07-31T06:47:38;99166.97;;;26.46;38.41
16331;BME280;8275;48.206;16.340;2023-07-31T06:50:10;99158.06;;;26.60;38.33
16331;BME280;8275;48.206;16.340;2023-07-31T06:52:38;99168.22;;;26.80;38.06
16331;BME280;8275;48.206;16.340;2023-07-31T06:55:18;99159.00;;;26.98;38.16
16331;BME280;8275;48.206;16.340;2023-07-31T06:57:47;99158.31;;;27.21;36.77
16331;BME280;8275;48.206;16.340;2023-07-31T07:00:17;99167.06;;;27.35;36.19
16331;BME280;8275;48.206;16.340;2023-07-31T07:02:45;99157.28;;;27.48;34.65
16331;BME280;8275;48.206;16.340;2023-07-31T07:05:17;99167.53;;;27.56;34.55
16331;BME280;8275;48.206;16.340;2023-07-31T07:07:45;99162.00;;;27.63;33.53
16331;BME280;8275;48.206;16.340;2023-07-31T07:10:14;99163.41;;;27.72;33.46
16331;BME280;8275;48.206;16.340;2023-07-31T07:12:43;99166.06;;;27.84;33.59
16331;BME280;8275;48.206;16.340;2023-07-31T07:15:11;99159.53;;;28.00;33.94
16331;BME280;8275;48.206;16.340;2023-07-31T07:17:40;99160.69;;;28.18;32.43
16331;BME280;8275;48.206;16.340;2023-07-31T07:20:09;99152.41;;;28.28;30.99
16331;BME280;8275;48.206;16.340;2023-07-31T07:22:39;99157.03;;;28.40;32.05
16331;BME280;8275;48.206;16.340;2023-07-31T07:25:10;99158.16;;;28.58;32.01
16331;BME280;8275;48.206;16.340;2023-07-31T07:27:38;99152.81;;;28.76;30.08
16331;BME280;8275;48.206;16.340;2023-07-31T07:30:09;99153.69;;;28.80;29.02
16331;BME280;8275;48.206;16.340;2023-07-31T07:32:38;99140.84;;;28.82;29.14
16331;BME280;8275;48.206;16.340;2023-07-31T07:35:07;99139.19;;;28.81;29.51
16331;BME280;8275;48.206;16.340;2023-07-31T07:37:36;99152.56;;;28.84;28.82
16331;BME280;8275;48.206;16.340;2023-07-31T07:40:08;99150.47;;;28.81;29.14
16331;BME280;8275;48.206;16.340;2023-07-31T07:42:37;99145.22;;;28.80;29.40
16331;BME280;8275;48.206;16.340;2023-07-31T07:45:07;99147.22;;;28.79;28.91
16331;BME280;8275;48.206;16.340;2023-07-31T07:47:36;99152.00;;;28.75;28.46
16331;BME280;8275;48.206;16.340;2023-07-31T07:50:06;99145.38;;;28.64;28.12
16331;BME280;8275;48.206;16.340;2023-07-31T07:52:36;99142.50;;;28.61;29.13
16331;BME280;8275;48.206;16.340;2023-07-31T07:55:07;99144.19;;;28.65;29.27
16331;BME280;8275;48.206;16.340;2023-07-31T07:57:36;99145.16;;;28.76;29.53
16331;BME280;8275;48.206;16.340;2023-07-31T08:00:06;99144.44;;;28.83;28.99
16331;BME280;8275;48.206;16.340;2023-07-31T08:02:35;99146.94;;;28.88;28.78
16331;BME280;8275;48.206;16.340;2023-07-31T08:05:04;99146.22;;;28.94;29.26
16331;BME280;8275;48.206;16.340;2023-07-31T08:07:33;99144.81;;;29.07;29.22
16331;BME280;8275;48.206;16.340;2023-07-31T08:10:02;99122.78;;;29.16;28.44
16331;BME280;8275;48.206;16.340;2023-07-31T08:12:32;99145.81;;;29.18;29.02
16331;BME280;8275;48.206;16.340;2023-07-31T08:15:00;99139.41;;;29.22;28.57
16331;BME280;8275;48.206;16.340;2023-07-31T08:17:29;99139.78;;;29.20;28.44
16331;BME280;8275;48.206;16.340;2023-07-31T08:19:57;99141.78;;;29.19;28.76
16331;BME280;8275;48.206;16.340;2023-07-31T08:22:26;99140.16;;;29.18;28.25
16331;BME280;8275;48.206;16.340;2023-07-31T08:24:54;99149.00;;;29.17;28.17
16331;BME280;8275;48.206;16.340;2023-07-31T08:27:23;99132.44;;;29.15;28.95
16331;BME280;8275;48.206;16.340;2023-07-31T08:29:53;99136.47;;;29.14;28.42
16331;BME280;8275;48.206;16.340;2023-07-31T08:32:22;99136.53;;;29.18;29.07
16331;BME280;8275;48.206;16.340;2023-07-31T08:34:51;99126.53;;;29.24;28.24
16331;BME280;8275;48.206;16.340;2023-07-31T08:37:20;99142.75;;;29.31;28.83
16331;BME280;8275;48.206;16.340;2023-07-31T08:39:48;99123.44;;;29.36;28.39
16331;BME280;8275;48.206;16.340;2023-07-31T08:42:17;99136.03;;;29.42;27.67
16331;BME280;8275;48.206;16.340;2023-07-31T08:44:46;99132.41;;;29.42;27.09
16331;BME280;8275;48.206;16.340;2023-07-31T08:47:17;99130.34;;;29.39;26.74
16331;BME280;8275;48.206;16.340;2023-07-31T08:49:48;99128.38;;;29.43;27.48
16331;BME280;8275;48.206;16.340;2023-07-31T08:52:16;99133.75;;;29.51;27.60
16331;BME280;8275;48.206;16.340;2023-07-31T08:54:45;99133.81;;;29.58;27.10
16331;BME280;8275;48.206;16.340;2023-07-31T08:57:14;99125.88;;;29.71;27.15
16331;BME280;8275;48.206;16.340;2023-07-31T08:59:46;99130.44;;;29.79;26.21
16331;BME280;8275;48.206;16.340;2023-07-31T09:02:17;99111.53;;;29.83;26.49
16331;BME280;8275;48.206;16.340;2023-07-31T09:04:47;99129.31;;;29.87;26.46
16331;BME280;8275;48.206;16.340;2023-07-31T09:07:16;99108.72;;;29.86;26.50
16331;BME280;8275;48.206;16.340;2023-07-31T09:09:46;99109.94;;;29.85;26.73
16331;BME280;8275;48.206;16.340;2023-07-31T09:12:14;99101.91;;;29.91;27.14
16331;BME280;8275;48.206;16.340;2023-07-31T09:14:44;99097.97;;;30.03;27.17
16331;BME280;8275;48.206;16.340;2023-07-31T09:17:13;99106.59;;;30.17;26.83
16331;BME280;8275;48.206;16.340;2023-07-31T09:19:43;99107.41;;;30.21;25.87
16331;BME280;8275;48.206;16.340;2023-07-31T09:22:12;99105.81;;;30.20;26.27
16331;BME280;8275;48.206;16.340;2023-07-31T09:24:41;99101.41;;;30.22;26.88
16331;BME280;8275;48.206;16.340;2023-07-31T09:27:09;99109.06;;;30.25;26.51
16331;BME280;8275;48.206;16.340;2023-07-31T09:29:38;99107.41;;;30.21;26.36
16331;BME280;8275;48.206;16.340;2023-07-31T09:32:16;99107.81;;;30.16;27.00
16331;BME280;8275;48.206;16.340;2023-07-31T09:34:46;99107.88;;;30.23;27.19
16331;BME280;8275;48.206;16.340;2023-07-31T09:37:15;99107.06;;;30.26;27.13
16331;BME280;8275;48.206;16.340;2023-07-31T09:39:47;99099.81;;;30.25;26.99
16331;BME280;8275;48.206;16.340;2023-07-31T09:42:26;99096.56;;;30.23;27.30
16331;BME280;8275;48.206;16.340;2023-07-31T09:45:08;99094.53;;;30.23;27.19
16331;BME280;8275;48.206;16.340;2023-07-31T09:47:37;99093.81;;;30.30;27.15
16331;BME280;8275;48.206;16.340;2023-07-31T09:50:09;99093.75;;;30.26;26.21
16331;BME280;8275;48.206;16.340;2023-07-31T09:52:39;99098.56;;;30.22;26.06
16331;BME280;8275;48.206;16.340;2023-07-31T09:55:09;99079.97;;;30.18;26.14
16331;BME280;8275;48.206;16.340;2023-07-31T09:57:40;99091.28;;;30.18;26.13
16331;BME280;8275;48.206;16.340;2023-07-31T10:00:11;99083.63;;;30.22;26.21
16331;BME280;8275;48.206;16.340;2023-07-31T10:02:40;99081.69;;;30.29;26.16
16331;BME280;8275;48.206;16.340;2023-07-31T10:05:13;99080.53;;;30.37;26.40
16331;BME280;8275;48.206;16.340;2023-07-31T10:07:48;99064.84;;;30.43;25.57
16331;BME280;8275;48.206;16.340;2023-07-31T10:10:21;99088.25;;;30.44;26.00
16331;BME280;8275;48.206;16.340;2023-07-31T10:12:50;99088.66;;;30.42;25.48
16331;BME280;8275;48.206;16.340;2023-07-31T10:15:20;99081.75;;;30.36;25.18
16331;BME280;8275;48.206;16.340;2023-07-31T10:17:50;99070.41;;;30.33;25.28
16331;BME280;8275;48.206;16.340;2023-07-31T10:20:20;99061.94;;;30.33;25.58
16331;BME280;8275;48.206;16.340;2023-07-31T10:22:49;99061.56;;;30.38;25.78
16331;BME280;8275;48.206;16.340;2023-07-31T10:25:22;99064.06;;;30.46;26.03
16331;BME280;8275;48.206;16.340;2023-07-31T10:27:51;99057.66;;;30.57;25.28
16331;BME280;8275;48.206;16.340;2023-07-31T10:30:23;99048.03;;;30.68;25.58
16331;BME280;8275;48.206;16.340;2023-07-31T10:32:53;99046.13;;;30.83;25.54
16331;BME280;8275;48.206;16.340;2023-07-31T10:35:24;99032.84;;;30.94;25.77
16331;BME280;8275;48.206;16.340;2023-07-31T10:37:52;99036.94;;;31.03;25.80
16331;BME280;8275;48.206;16.340;2023-07-31T10:40:26;99035.31;;;31.06;25.29
16331;BME280;8275;48.206;16.340;2023-07-31T10:42:56;99027.66;;;31.10;25.48
16331;BME280;8275;48.206;16.340;2023-07-31T10:45:31;99041.00;;;31.13;25.06
16331;BME280;8275;48.206;16.340;2023-07-31T10:48:02;99031.72;;;31.12;24.47
16331;BME280;8275;48.206;16.340;2023-07-31T10:50:36;99018.78;;;31.15;24.26
16331;BME280;8275;48.206;16.340;2023-07-31T10:53:05;99016.78;;;31.30;23.97
16331;BME280;8275;48.206;16.340;2023-07-31T10:55:40;99014.06;;;31.51;24.07
16331;BME280;8275;48.206;16.340;2023-07-31T10:58:11;99007.63;;;31.85;24.53
16331;BME280;8275;48.206;16.340;2023-07-31T11:00:42;99000.75;;;32.32;24.25
16331;BME280;8275;48.206;16.340;2023-07-31T11:03:13;99002.22;;;32.90;24.00
16331;BME280;8275;48.206;16.340;2023-07-31T11:05:59;98995.06;;;33.44;23.08
16331;BME280;8275;48.206;16.340;2023-07-31T11:08:29;98996.28;;;34.05;22.61
16331;BME280;8275;48.206;16.340;2023-07-31T11:11:09;98987.25;;;34.57;22.82
16331;BME280;8275;48.206;16.340;2023-07-31T11:13:45;98989.09;;;35.08;22.18
16331;BME280;8275;48.206;16.340;2023-07-31T11:16:18;98980.22;;;35.60;20.24
16331;BME280;8275;48.206;16.340;2023-07-31T11:18:48;98979.78;;;35.88;19.64
16331;BME280;8275;48.206;16.340;2023-07-31T11:21:21;98972.13;;;36.08;18.57
16331;BME280;8275;48.206;16.340;2023-07-31T11:23:53;98978.63;;;36.32;19.06
16331;BME280;8275;48.206;16.340;2023-07-31T11:26:24;98962.66;;;36.57;18.53
16331;BME280;8275;48.206;16.340;2023-07-31T11:28:53;98960.03;;;36.86;18.92
16331;BME280;8275;48.206;16.340;2023-07-31T11:31:22;98962.38;;;37.11;18.12
16331;BME280;8275;48.206;16.340;2023-07-31T11:33:50;98957.44;;;37.31;17.43
16331;BME280;8275;48.206;16.340;2023-07-31T11:36:21;98956.91;;;37.36;17.66
16331;BME280;8275;48.206;16.340;2023-07-31T11:38:49;98958.94;;;37.39;18.33
16331;BME280;8275;48.206;16.340;2023-07-31T11:41:18;98952.31;;;37.58;18.23
16331;BME280;8275;48.206;16.340;2023-07-31T11:43:47;98949.25;;;38.01;18.91
16331;BME280;8275;48.206;16.340;2023-07-31T11:46:16;98940.28;;;38.60;18.49
16331;BME280;8275;48.206;16.340;2023-07-31T11:48:46;98942.91;;;39.24;17.59
16331;BME280;8275;48.206;16.340;2023-07-31T11:51:15;98946.03;;;39.68;17.01
16331;BME280;8275;48.206;16.340;2023-07-31T11:53:48;98943.81;;;40.10;17.01
16331;BME280;8275;48.206;16.340;2023-07-31T11:56:19;98934.38;;;40.56;15.64
16331;BME280;8275;48.206;16.340;2023-07-31T11:58:53;98931.63;;;40.74;15.04
16331;BME280;8275;48.206;16.340;2023-07-31T12:01:22;98933.19;;;40.88;14.86
16331;BME280;8275;48.206;16.340;2023-07-31T12:03:52;98931.31;;;40.72;14.33
16331;BME280;8275;48.206;16.340;2023-07-31T12:06:21;98924.09;;;40.68;15.29
16331;BME280;8275;48.206;16.340;2023-07-31T12:08:51;98925.75;;;40.78;14.44
16331;BME280;8275;48.206;16.340;2023-07-31T12:11:20;98930.22;;;40.79;14.12
16331;BME280;8275;48.206;16.340;2023-07-31T12:13:48;98914.44;;;40.83;14.36
16331;BME280;8275;48.206;16.340;2023-07-31T12:16:17;98911.59;;;40.83;14.20
16331;BME280;8275;48.206;16.340;2023-07-31T12:18:45;98903.84;;;40.93;14.53
16331;BME280;8275;48.206;16.340;2023-07-31T12:21:17;98899.81;;;41.12;14.34
16331;BME280;8275;48.206;16.340;2023-07-31T12:23:47;98898.06;;;41.45;14.23
16331;BME280;8275;48.206;16.340;2023-07-31T12:26:17;98900.16;;;41.54;13.04
16331;BME280;8275;48.206;16.340;2023-07-31T12:28:49;98891.16;;;41.73;14.16
16331;BME280;8275;48.206;16.340;2023-07-31T12:31:20;98887.25;;;42.16;14.30
16331;BME280;8275;48.206;16.340;2023-07-31T12:33:51;98888.88;;;42.53;14.30
16331;BME280;8275;48.206;16.340;2023-07-31T12:36:22;98879.72;;;42.91;12.41
16331;BME280;8275;48.206;16.340;2023-07-31T12:38:52;98878.81;;;43.18;13.08
16331;BME280;8275;48.206;16.340;2023-07-31T12:41:22;98867.09;;;43.63;12.25
16331;BME280;8275;48.206;16.340;2023-07-31T12:43:50;98866.41;;;44.01;11.82
16331;BME280;8275;48.206;16.340;2023-07-31T12:46:19;98852.94;;;44.22;11.17
16331;BME280;8275;48.206;16.340;2023-07-31T12:48:47;98853.16;;;44.33;11.47
16331;BME280;8275;48.206;16.340;2023-07-31T12:51:16;98859.03;;;44.62;11.32
16331;BME280;8275;48.206;16.340;2023-07-31T12:53:45;98863.69;;;44.74;10.05
16331;BME280;8275;48.206;16.340;2023-07-31T12:56:13;98857.09;;;44.44;9.89
16331;BME280;8275;48.206;16.340;2023-07-31T12:58:43;98847.84;;;44.17;10.92
16331;BME280;8275;48.206;16.340;2023-07-31T13:01:13;98835.75;;;44.27;10.82
16331;BME280;8275;48.206;16.340;2023-07-31T13:03:42;98835.09;;;44.47;11.09
16331;BME280;8275;48.206;16.340;2023-07-31T13:06:11;98837.59;;;44.69;11.64
16331;BME280;8275;48.206;16.340;2023-07-31T13:08:39;98823.03;;;45.07;11.27
16331;BME280;8275;48.206;16.340;2023-07-31T13:11:08;98828.88;;;45.42;10.67
16331;BME280;8275;48.206;16.340;2023-07-31T13:13:36;98820.63;;;45.69;10.91